Time;durP1;ratioP1;P1;durP2;ratioP2;P2;SDS_P1;SDS_P2;PMS_P1;PMS_P2;Temp;Humidity;BMP_temperature;BMP_pressure;BME280_temperature;BME280_humidity;BME280_pressure;Samples;Min_cycle;Max_cycle;Signal;HPM_P1;HPM_P2
2022/12/05 00:00:30;;;;;;;25.45;14.98;;;5.10;99.90;;;;;;5111699;28;20066;-62
2022/12/05 00:02:56;;;;;;;25.88;15.73;;;5.10;99.90;;;;;;5110588;28;20493;-62
2022/12/05 00:05:21;;;;;;;26.60;14.80;;;5.10;99.90;;;;;;5112030;28;20119;-62
2022/12/05 00:07:47;;;;;;;27.45;14.82;;;5.10;99.90;;;;;;5094359;28;20040;-62
2022/12/05 00:10:13;;;;;;;25.10;15.70;;;5.10;99.90;;;;;;5110142;28;20042;-62
2022/12/05 00:12:39;;;;;;;26.25;14.50;;;5.10;99.90;;;;;;5111260;28;20045;-62
2022/12/05 00:15:05;;;;;;;23.58;14.57;;;5.20;99.90;;;;;;5110706;28;20028;-62
2022/12/05 00:17:31;;;;;;;22.67;13.05;;;5.10;99.90;;;;;;5093640;28;20040;-62
2022/12/05 00:19:57;;;;;;;26.95;14.82;;;5.20;99.90;;;;;;5112447;28;20042;-62
2022/12/05 00:22:23;;;;;;;26.23;13.45;;;5.20;99.90;;;;;;5114334;28;20051;-62
2022/12/05 00:24:48;;;;;;;21.33;13.60;;;5.20;99.90;;;;;;5115744;28;20086;-63
2022/12/05 00:27:14;;;;;;;26.83;13.60;;;5.20;99.90;;;;;;5115611;28;20501;-62
2022/12/05 00:29:40;;;;;;;24.60;13.23;;;5.20;99.90;;;;;;5115568;28;20056;-62
2022/12/05 00:32:06;;;;;;;19.52;12.35;;;5.20;99.90;;;;;;5113601;28;20547;-63
2022/12/05 00:34:31;;;;;;;23.60;13.98;;;5.20;99.90;;;;;;5116431;28;20059;-62
2022/12/05 00:36:57;;;;;;;24.27;13.10;;;5.30;99.90;;;;;;5115964;28;20028;-63
2022/12/05 00:39:22;;;;;;;20.58;12.13;;;5.30;99.90;;;;;;5115356;28;20040;-62
2022/12/05 00:41:48;;;;;;;23.88;14.23;;;5.30;99.90;;;;;;5116032;28;20044;-62
2022/12/05 00:44:14;;;;;;;25.02;14.85;;;5.30;99.90;;;;;;5115005;28;20116;-62
2022/12/05 00:46:39;;;;;;;22.10;13.30;;;5.30;99.90;;;;;;5115241;28;20434;-63
2022/12/05 00:49:06;;;;;;;28.20;15.30;;;5.30;99.90;;;;;;5115590;28;20544;-62
2022/12/05 00:51:35;;;;;;;26.83;15.18;;;5.30;99.90;;;;;;5113957;28;20047;-63
2022/12/05 00:54:04;;;;;;;25.33;14.07;;;5.40;99.90;;;;;;5115193;28;20399;-62
2022/12/05 00:56:31;;;;;;;24.50;14.27;;;5.40;99.90;;;;;;5114697;28;20032;-62
2022/12/05 00:58:59;;;;;;;26.65;14.48;;;5.40;99.90;;;;;;5114163;28;20048;-62
2022/12/05 01:01:39;;;;;;;24.38;14.65;;;5.30;99.90;;;;;;5115503;27;20047;-63
2022/12/05 01:04:09;;;;;;;26.98;15.82;;;5.40;99.90;;;;;;5114228;28;20044;-62
2022/12/05 01:06:35;;;;;;;25.17;16.17;;;5.30;99.90;;;;;;5115051;28;20066;-63
2022/12/05 01:09:02;;;;;;;26.23;14.43;;;5.40;99.90;;;;;;5115689;28;20063;-62
2022/12/05 01:11:28;;;;;;;27.92;14.90;;;5.30;99.90;;;;;;5115216;28;20078;-62
2022/12/05 01:13:55;;;;;;;25.98;14.52;;;5.30;99.90;;;;;;5096517;28;20048;-62
2022/12/05 01:16:21;;;;;;;26.63;14.95;;;5.30;99.90;;;;;;5096682;28;20488;-63
2022/12/05 01:18:47;;;;;;;26.00;14.90;;;5.30;99.90;;;;;;5114354;28;20050;-63
2022/12/05 01:21:12;;;;;;;27.48;15.73;;;5.30;99.90;;;;;;5112911;28;20522;-62
2022/12/05 01:23:38;;;;;;;24.17;14.38;;;5.30;99.90;;;;;;5114616;28;20047;-62
2022/12/05 01:26:09;;;;;;;25.45;14.18;;;5.30;99.90;;;;;;5114846;28;20519;-62
2022/12/05 01:28:36;;;;;;;28.05;15.20;;;5.40;99.90;;;;;;5115057;28;20048;-62
2022/12/05 01:31:17;;;;;;;29.42;14.88;;;5.40;99.90;;;;;;5113878;28;20051;-62
2022/12/05 01:33:43;;;;;;;24.77;15.40;;;5.40;99.90;;;;;;5112688;28;20091;-62
2022/12/05 01:36:11;;;;;;;23.55;13.98;;;5.40;99.90;;;;;;5114567;28;20119;-62
2022/12/05 01:38:38;;;;;;;27.65;14.95;;;5.40;99.90;;;;;;5113955;28;20488;-62
2022/12/05 01:41:05;;;;;;;26.08;13.95;;;5.40;99.90;;;;;;5112696;28;20063;-62
2022/12/05 01:43:31;;;;;;;23.13;14.85;;;5.40;99.90;;;;;;5114995;28;20042;-62
2022/12/05 01:45:57;;;;;;;25.83;14.07;;;5.40;99.90;;;;;;5113747;28;20063;-62
2022/12/05 01:48:32;;;;;;;28.15;14.70;;;5.50;99.90;;;;;;5112374;28;20667;-62
2022/12/05 01:50:59;;;;;;;25.02;13.82;;;5.50;99.90;;;;;;5114838;28;20047;-62
2022/12/05 01:53:27;;;;;;;21.88;13.07;;;5.50;99.90;;;;;;5113140;28;20507;-63
2022/12/05 01:55:54;;;;;;;19.95;12.68;;;5.50;99.90;;;;;;5113046;28;20040;-62
2022/12/05 01:58:20;;;;;;;21.88;13.20;;;5.50;99.90;;;;;;5114305;28;20046;-62
2022/12/05 02:00:46;;;;;;;20.80;11.57;;;5.60;99.90;;;;;;5114660;28;20080;-62
2022/12/05 02:03:18;;;;;;;22.05;11.93;;;5.60;99.90;;;;;;5112097;28;20050;-62
2022/12/05 02:05:47;;;;;;;17.17;10.63;;;5.60;99.90;;;;;;5113448;28;20044;-62
2022/12/05 02:08:16;;;;;;;18.85;11.45;;;5.60;99.90;;;;;;5113066;28;20051;-63
2022/12/05 02:10:48;;;;;;;16.52;9.30;;;5.60;99.90;;;;;;5113729;28;20088;-62
2022/12/05 02:13:41;;;;;;;17.83;10.18;;;5.60;99.90;;;;;;5113923;28;20059;-62
2022/12/05 02:16:12;;;;;;;15.50;8.93;;;5.70;99.90;;;;;;5111651;28;20092;-62
2022/12/05 02:18:50;;;;;;;20.35;10.23;;;5.70;99.90;;;;;;5114586;28;20040;-62
2022/12/05 02:21:37;;;;;;;16.13;9.00;;;5.70;99.90;;;;;;5112752;28;20097;-62
2022/12/05 02:24:39;;;;;;;17.55;7.93;;;5.70;99.90;;;;;;5112259;28;20039;-62
2022/12/05 02:27:32;;;;;;;15.13;8.07;;;5.70;99.90;;;;;;5113446;28;20059;-63
2022/12/05 02:30:12;;;;;;;14.65;8.38;;;5.70;99.90;;;;;;5112077;28;20094;-62
2022/12/05 02:32:49;;;;;;;13.77;7.13;;;5.80;99.90;;;;;;5112923;28;20051;-62
2022/12/05 02:35:33;;;;;;;13.00;6.70;;;5.80;99.90;;;;;;5112277;28;20035;-62
2022/12/05 02:38:04;;;;;;;14.52;7.07;;;5.80;99.90;;;;;;5113277;28;20044;-62
2022/12/05 02:40:49;;;;;;;10.95;6.85;;;5.90;99.90;;;;;;5112676;28;20035;-62
2022/12/05 02:43:21;;;;;;;12.47;7.33;;;5.90;99.90;;;;;;5111953;28;20159;-63
2022/12/05 02:45:52;;;;;;;14.98;7.57;;;5.90;99.90;;;;;;5112130;28;20046;-62
2022/12/05 02:48:19;;;;;;;13.43;6.20;;;5.90;99.90;;;;;;5112098;28;20104;-63
2022/12/05 02:50:47;;;;;;;11.25;6.38;;;5.90;99.90;;;;;;5112985;28;20549;-63
2022/12/05 02:53:16;;;;;;;13.05;7.10;;;5.90;99.90;;;;;;5113397;28;20073;-63
2022/12/05 02:55:44;;;;;;;11.25;6.15;;;5.90;99.90;;;;;;5112362;28;20035;-63
2022/12/05 02:58:18;;;;;;;16.17;8.25;;;5.90;99.90;;;;;;5110911;28;20050;-62
2022/12/05 03:00:46;;;;;;;15.03;6.50;;;5.90;99.90;;;;;;5113579;28;20396;-63
2022/12/05 03:03:20;;;;;;;14.32;7.18;;;5.90;99.90;;;;;;5113058;28;20043;-62
2022/12/05 03:06:26;;;;;;;14.00;7.20;;;5.90;99.90;;;;;;5112975;28;20071;-63
2022/12/05 03:09:01;;;;;;;15.00;6.07;;;5.90;99.90;;;;;;5051015;28;20555;-62
2022/12/05 03:11:33;;;;;;;;;;;5.90;99.90;;;;;;5100331;28;20047;-62
2022/12/05 03:14:02;;;;;;;11.05;5.63;;;5.80;99.90;;;;;;5111067;28;19927;-62
2022/12/05 03:16:38;;;;;;;13.07;6.15;;;5.90;99.90;;;;;;5112827;28;20071;-62
2022/12/05 03:19:16;;;;;;;11.65;5.57;;;5.90;99.90;;;;;;5111113;28;20047;-62
2022/12/05 03:21:51;;;;;;;14.57;6.80;;;5.90;99.90;;;;;;5113378;28;20047;-62
2022/12/05 03:24:17;;;;;;;11.50;6.18;;;5.90;99.90;;;;;;5112445;28;20067;-62
2022/12/05 03:26:48;;;;;;;11.75;6.07;;;5.80;99.90;;;;;;5110996;28;20102;-62
2022/12/05 03:29:35;;;;;;;13.13;6.03;;;5.90;99.90;;;;;;5112838;28;20109;-62
2022/12/05 03:32:19;;;;;;;11.23;5.38;;;5.90;99.90;;;;;;5111934;28;20035;-62
2022/12/05 03:34:48;;;;;;;10.77;5.40;;;5.90;99.90;;;;;;5110897;28;20042;-62
2022/12/05 03:37:39;;;;;;;12.52;6.88;;;5.90;99.90;;;;;;5111161;28;20067;-62
2022/12/05 03:40:33;;;;;;;12.82;5.90;;;5.90;99.90;;;;;;5096348;28;20504;-62
2022/12/05 03:43:36;;;;;;;16.73;6.65;;;5.90;99.90;;;;;;5111376;28;20043;-62
2022/12/05 03:46:11;;;;;;;12.23;6.75;;;5.90;99.90;;;;;;5112984;28;20032;-62
2022/12/05 03:48:53;;;;;;;15.50;6.70;;;5.90;99.90;;;;;;5112145;28;20168;-62
2022/12/05 03:51:25;;;;;;;11.80;6.72;;;5.90;99.90;;;;;;5112354;28;20074;-62
2022/12/05 03:54:09;;;;;;;12.10;6.38;;;5.90;99.90;;;;;;5111625;28;20035;-63
2022/12/05 03:56:43;;;;;;;14.30;6.38;;;5.90;99.90;;;;;;5113872;28;20063;-62
2022/12/05 03:59:19;;;;;;;14.75;7.90;;;5.90;99.90;;;;;;5117795;28;20061;-62
2022/12/05 04:01:47;;;;;;;12.68;6.45;;;5.90;99.90;;;;;;5118713;28;20476;-62
2022/12/05 04:04:29;;;;;;;16.60;7.38;;;5.90;99.90;;;;;;5119064;28;20049;-63
2022/12/05 04:06:59;;;;;;;14.32;7.30;;;5.90;99.90;;;;;;5118328;28;20043;-62
2022/12/05 04:09:30;;;;;;;13.25;7.25;;;5.90;99.90;;;;;;5117054;28;20434;-62
2022/12/05 04:12:04;;;;;;;13.57;6.65;;;5.90;99.90;;;;;;5118085;28;20044;-62
2022/12/05 04:14:40;;;;;;;18.13;7.68;;;5.90;99.90;;;;;;5119733;27;20066;-62
2022/12/05 04:17:29;;;;;;;14.05;7.13;;;5.90;99.90;;;;;;5117981;28;20498;-63
2022/12/05 04:23:17;;;;;;;13.88;7.75;;;5.90;99.90;;;;;;5117035;28;20400;-63
2022/12/05 04:25:52;;;;;;;15.68;7.60;;;5.90;99.90;;;;;;5117943;28;20042;-62
2022/12/05 04:28:32;;;;;;;19.02;8.85;;;5.90;99.90;;;;;;5117707;28;20051;-62
2022/12/05 04:31:12;;;;;;;15.68;7.80;;;5.90;99.90;;;;;;5117131;28;20043;-63
2022/12/05 04:33:49;;;;;;;13.55;7.30;;;5.90;99.90;;;;;;5119301;28;20039;-62
2022/12/05 04:36:22;;;;;;;13.18;7.03;;;5.90;99.90;;;;;;5118087;28;20038;-63
2022/12/05 04:39:11;;;;;;;17.38;8.57;;;5.90;99.90;;;;;;5100890;28;20055;-62
2022/12/05 04:41:41;;;;;;;14.07;7.43;;;5.90;99.90;;;;;;5118133;28;20047;-62
2022/12/05 04:44:11;;;;;;;15.60;9.25;;;5.90;99.90;;;;;;5117804;28;20484;-63
2022/12/05 04:46:40;;;;;;;16.13;8.07;;;5.80;99.90;;;;;;5119211;28;20031;-63
2022/12/05 04:49:08;;;;;;;14.57;8.30;;;5.90;99.90;;;;;;5117427;28;20039;-62
2022/12/05 04:51:37;;;;;;;19.55;9.77;;;5.90;99.90;;;;;;5117087;28;20122;-62
2022/12/05 04:54:13;;;;;;;16.33;8.73;;;5.90;99.90;;;;;;5118923;28;20043;-62
2022/12/05 04:56:42;;;;;;;16.08;10.00;;;5.90;99.90;;;;;;5119026;28;20484;-62
2022/12/05 04:59:09;;;;;;;15.18;7.55;;;5.80;99.90;;;;;;5116450;28;20047;-62
2022/12/05 05:01:57;;;;;;;18.52;8.50;;;5.90;99.90;;;;;;5119124;28;20035;-63
2022/12/05 05:04:46;;;;;;;18.88;8.70;;;5.90;99.90;;;;;;5117892;27;20048;-63
2022/12/05 05:07:12;;;;;;;15.73;7.88;;;5.90;99.90;;;;;;5117477;28;20487;-63
2022/12/05 05:09:40;;;;;;;15.98;8.35;;;5.90;99.90;;;;;;5114386;28;20043;-63
2022/12/05 05:12:06;;;;;;;12.18;7.53;;;5.80;99.90;;;;;;5114299;28;20044;-63
2022/12/05 05:14:32;;;;;;;16.15;8.93;;;5.90;99.90;;;;;;5114442;28;20061;-62
2022/12/05 05:16:58;;;;;;;14.90;9.10;;;5.90;99.90;;;;;;5115510;28;20043;-63
2022/12/05 05:19:24;;;;;;;18.08;8.48;;;5.90;99.90;;;;;;5114432;28;20040;-62
2022/12/05 05:21:50;;;;;;;14.85;7.47;;;5.90;99.90;;;;;;5115533;28;20529;-63
2022/12/05 05:24:17;;;;;;;13.77;7.93;;;5.90;99.90;;;;;;5113476;28;20048;-62
2022/12/05 05:26:44;;;;;;;17.88;9.30;;;5.90;99.90;;;;;;5114720;28;20055;-62
2022/12/05 05:29:12;;;;;;;17.83;8.65;;;6.00;99.90;;;;;;5113701;28;20055;-62
2022/12/05 05:31:39;;;;;;;15.05;7.93;;;5.90;99.90;;;;;;5114009;28;20043;-62
2022/12/05 05:34:05;;;;;;;16.05;8.90;;;5.90;99.90;;;;;;5114000;28;20430;-62
2022/12/05 05:36:30;;;;;;;15.88;8.18;;;5.90;99.90;;;;;;5115407;28;20166;-62
2022/12/05 05:38:58;;;;;;;19.35;8.70;;;5.90;99.90;;;;;;5113767;28;20046;-62
2022/12/05 05:41:33;;;;;;;17.70;8.48;;;5.90;99.90;;;;;;5112368;28;20539;-62
2022/12/05 05:43:59;;;;;;;15.13;8.27;;;5.90;99.90;;;;;;5114934;28;20045;-62
2022/12/05 05:46:27;;;;;;;19.30;9.57;;;6.00;99.90;;;;;;5114242;28;20089;-62
2022/12/05 05:48:53;;;;;;;14.68;7.38;;;5.90;99.90;;;;;;5113751;28;20119;-62
2022/12/05 05:51:20;;;;;;;15.40;7.72;;;6.00;99.90;;;;;;5114373;28;20118;-62
2022/12/05 05:53:46;;;;;;;17.02;7.95;;;5.90;99.90;;;;;;5113012;28;20092;-63
2022/12/05 05:56:18;;;;;;;14.82;7.63;;;5.90;99.90;;;;;;5114271;28;20480;-63
2022/12/05 05:58:44;;;;;;;13.27;7.03;;;5.90;99.90;;;;;;5114974;28;20126;-62
2022/12/05 06:01:13;;;;;;;12.45;6.78;;;5.90;99.90;;;;;;5113632;28;20035;-62
2022/12/05 06:03:39;;;;;;;15.18;7.47;;;5.90;99.90;;;;;;5114792;28;20079;-62
2022/12/05 06:06:08;;;;;;;13.38;7.60;;;5.90;99.90;;;;;;5114192;28;20122;-63
2022/12/05 06:08:36;;;;;;;15.60;8.73;;;5.90;99.90;;;;;;5113891;28;20078;-63
2022/12/05 06:11:10;;;;;;;14.52;7.85;;;5.90;99.90;;;;;;5113150;28;20126;-63
2022/12/05 06:13:36;;;;;;;13.70;7.20;;;5.90;99.90;;;;;;5114833;28;20077;-62
2022/12/05 06:16:08;;;;;;;11.88;6.68;;;5.90;99.90;;;;;;5112634;28;20039;-62
2022/12/05 06:18:34;;;;;;;16.80;7.22;;;5.90;99.90;;;;;;5114413;28;20085;-62
2022/12/05 06:21:01;;;;;;;12.43;6.47;;;5.90;99.90;;;;;;5113979;28;20035;-62
2022/12/05 06:23:27;;;;;;;18.30;7.53;;;5.90;99.90;;;;;;5111505;28;20040;-62
2022/12/05 06:25:54;;;;;;;13.70;7.97;;;5.90;99.90;;;;;;5113162;28;20426;-63
2022/12/05 06:28:24;;;;;;;13.38;6.93;;;5.90;99.90;;;;;;5112421;28;20075;-63
2022/12/05 06:30:50;;;;;;;16.50;6.93;;;5.90;99.90;;;;;;5112150;28;20046;-62
2022/12/05 06:33:15;;;;;;;16.13;8.55;;;5.90;99.90;;;;;;5112242;28;20032;-63
2022/12/05 06:35:41;;;;;;;12.50;6.28;;;5.90;99.90;;;;;;5113091;28;20032;-62
2022/12/05 06:38:08;;;;;;;13.52;7.13;;;5.90;99.90;;;;;;5110897;28;20515;-62
2022/12/05 06:40:34;;;;;;;14.70;7.40;;;5.90;99.90;;;;;;5112673;28;20043;-62
2022/12/05 06:43:00;;;;;;;15.43;6.72;;;5.90;99.90;;;;;;5113183;28;20108;-63
2022/12/05 06:45:25;;;;;;;12.75;7.13;;;5.90;99.90;;;;;;5113139;28;20036;-63
2022/12/05 06:47:52;;;;;;;12.15;6.60;;;5.90;99.90;;;;;;5113929;28;20039;-63
2022/12/05 06:50:18;;;;;;;12.32;7.13;;;5.90;99.90;;;;;;5111623;28;20043;-63
2022/12/05 06:52:44;;;;;;;15.95;7.60;;;5.90;99.90;;;;;;5123441;27;20441;-62
2022/12/05 06:55:10;;;;;;;14.20;6.57;;;5.90;99.90;;;;;;5107284;27;20044;-64
2022/12/05 06:57:35;;;;;;;11.77;6.50;;;5.90;99.90;;;;;;5099038;28;20479;-64
2022/12/05 07:02:49;;;;;;;15.35;7.00;;;5.90;99.90;;;;;;5113672;28;20113;-64
2022/12/05 07:05:15;;;;;;;15.02;8.30;;;5.90;99.90;;;;;;5111710;27;20115;-63
2022/12/05 07:07:41;;;;;;;12.13;5.80;;;5.90;99.90;;;;;;5113513;28;20071;-64
2022/12/05 07:10:07;;;;;;;14.25;5.82;;;5.90;99.90;;;;;;5111825;28;20039;-64
2022/12/05 07:12:33;;;;;;;13.10;5.75;;;5.90;99.90;;;;;;5106726;28;20047;-64
2022/12/05 07:14:59;;;;;;;22.30;11.82;;;5.80;99.90;;;;;;5111069;28;20460;-64
2022/12/05 07:17:25;;;;;;;15.70;6.20;;;5.80;99.90;;;;;;5109460;28;20532;-64
2022/12/05 07:19:51;;;;;;;19.85;12.95;;;5.90;99.90;;;;;;5108641;28;20100;-64
2022/12/05 07:22:18;;;;;;;18.02;11.18;;;5.80;99.90;;;;;;5109868;28;20088;-64
2022/12/05 07:24:44;;;;;;;13.45;6.45;;;5.80;99.90;;;;;;5110878;28;20054;-64
2022/12/05 07:27:11;;;;;;;15.20;7.38;;;5.90;99.90;;;;;;5107931;28;20055;-64
2022/12/05 07:29:36;;;;;;;14.05;6.63;;;5.90;99.90;;;;;;5107869;28;20046;-64
2022/12/05 07:32:03;;;;;;;14.57;6.50;;;5.90;99.90;;;;;;5109309;28;20048;-63
2022/12/05 07:34:29;;;;;;;18.10;7.50;;;5.90;99.90;;;;;;5109016;28;20089;-64
2022/12/05 07:36:54;;;;;;;18.42;5.80;;;5.90;99.90;;;;;;5106970;28;20043;-64
2022/12/05 07:39:20;;;;;;;12.52;5.68;;;5.90;99.90;;;;;;5108054;28;20096;-64
2022/12/05 07:41:45;;;;;;;16.35;5.78;;;5.90;99.90;;;;;;5109238;28;20054;-64
2022/12/05 07:44:12;;;;;;;10.27;5.10;;;5.90;99.90;;;;;;5108831;28;20476;-64
2022/12/05 07:46:38;;;;;;;14.00;5.55;;;5.90;99.90;;;;;;5107983;28;20047;-63
2022/12/05 07:49:04;;;;;;;19.88;7.45;;;6.00;99.90;;;;;;5108005;28;20086;-63
2022/12/05 07:51:30;;;;;;;14.00;7.22;;;6.00;99.90;;;;;;5110501;28;20068;-63
2022/12/05 07:53:58;;;;;;;12.20;6.03;;;6.00;99.90;;;;;;5108483;28;20123;-63
2022/12/05 07:56:24;;;;;;;12.65;5.53;;;6.00;99.90;;;;;;5108491;28;20047;-64
2022/12/05 07:58:50;;;;;;;14.98;5.28;;;6.00;99.90;;;;;;5105338;28;20062;-64
2022/12/05 08:01:19;;;;;;;13.35;5.00;;;6.00;99.90;;;;;;5106389;28;20044;-63
2022/12/05 08:03:45;;;;;;;12.30;6.80;;;6.10;99.90;;;;;;5102973;28;20418;-64
2022/12/05 08:06:14;;;;;;;13.45;6.13;;;6.10;99.90;;;;;;5087948;28;20373;-64
2022/12/05 08:08:39;;;;;;;13.52;5.78;;;6.10;99.90;;;;;;5092256;28;20040;-64
2022/12/05 08:11:09;;;;;;;12.63;7.53;;;6.10;99.90;;;;;;5094830;28;20483;-64
2022/12/05 08:13:36;;;;;;;16.92;6.65;;;6.10;99.90;;;;;;5110113;28;20039;-64
2022/12/05 08:16:04;;;;;;;10.82;5.13;;;6.10;99.90;;;;;;5107794;28;20048;-64
2022/12/05 08:18:30;;;;;;;15.07;6.28;;;6.10;99.90;;;;;;5108731;28;20093;-64
2022/12/05 08:21:01;;;;;;;14.57;6.18;;;6.10;99.90;;;;;;5108988;28;20082;-64
2022/12/05 08:23:29;;;;;;;14.15;6.30;;;6.10;99.90;;;;;;5099626;28;20510;-64
2022/12/05 08:25:55;;;;;;;14.43;7.47;;;6.10;99.90;;;;;;5107658;28;20047;-63
2022/12/05 08:28:20;;;;;;;12.93;5.85;;;6.10;99.90;;;;;;5088454;28;20047;-63
2022/12/05 08:30:46;;;;;;;12.85;5.40;;;6.20;99.90;;;;;;5107829;28;20062;-64
2022/12/05 08:33:11;;;;;;;13.60;5.40;;;6.20;99.90;;;;;;5107708;28;20039;-63
2022/12/05 08:35:37;;;;;;;17.45;6.35;;;6.20;99.90;;;;;;5108821;28;20498;-63
2022/12/05 08:38:03;;;;;;;13.52;5.72;;;6.20;99.90;;;;;;5109805;28;20040;-64
2022/12/05 08:40:30;;;;;;;15.05;6.45;;;6.20;99.90;;;;;;5109205;28;20046;-63
2022/12/05 08:42:56;;;;;;;12.90;5.75;;;6.20;99.90;;;;;;5108833;28;20043;-64
2022/12/05 08:45:22;;;;;;;12.18;6.25;;;6.20;99.90;;;;;;5112000;27;20032;-64
2022/12/05 08:47:47;;;;;;;16.88;6.72;;;6.20;99.90;;;;;;5111663;28;20252;-64
2022/12/05 08:50:13;;;;;;;12.13;5.80;;;6.20;99.90;;;;;;5112216;28;20040;-63
2022/12/05 08:52:39;;;;;;;20.80;6.30;;;6.10;99.90;;;;;;5112177;28;20044;-63
2022/12/05 08:55:05;;;;;;;12.23;5.82;;;6.20;99.90;;;;;;5098825;28;20162;-63
2022/12/05 08:57:31;;;;;;;15.48;5.88;;;6.20;99.90;;;;;;5112167;28;20488;-64
2022/12/05 08:59:57;;;;;;;11.82;5.68;;;6.20;99.90;;;;;;5098422;28;20046;-64
2022/12/05 09:02:23;;;;;;;8.75;5.30;;;6.10;99.90;;;;;;5091502;28;20470;-63
2022/12/05 09:04:51;;;;;;;12.75;6.10;;;6.20;99.90;;;;;;5095493;28;20412;-64
2022/12/05 09:07:17;;;;;;;11.63;5.82;;;6.20;99.90;;;;;;5091618;28;20079;-63
2022/12/05 09:09:43;;;;;;;10.85;5.60;;;6.20;99.90;;;;;;5090872;28;20133;-64
2022/12/05 09:12:08;;;;;;;12.50;6.10;;;6.20;99.90;;;;;;5103665;28;20126;-64
2022/12/05 09:14:34;;;;;;;10.27;5.93;;;6.20;99.90;;;;;;5102667;28;20042;-64
2022/12/05 09:17:00;;;;;;;18.13;6.60;;;6.20;99.90;;;;;;5108036;28;20114;-63
2022/12/05 09:19:27;;;;;;;12.27;5.38;;;6.20;99.90;;;;;;5110271;28;20044;-63
2022/12/05 09:21:53;;;;;;;12.35;6.05;;;6.20;99.90;;;;;;5109545;28;20498;-64
2022/12/05 09:24:19;;;;;;;12.50;6.10;;;6.20;99.90;;;;;;5109979;28;20036;-64
2022/12/05 09:26:45;;;;;;;11.55;5.68;;;6.20;99.90;;;;;;5113299;28;20059;-63
2022/12/05 09:29:12;;;;;;;15.20;7.50;;;6.20;99.90;;;;;;5114672;28;20484;-63
2022/12/05 09:31:38;;;;;;;12.20;5.90;;;6.20;99.90;;;;;;5112830;28;20035;-63
2022/12/05 09:34:03;;;;;;;32.33;14.48;;;6.10;99.90;;;;;;5113058;28;20047;-63
2022/12/05 09:36:30;;;;;;;47.03;21.98;;;6.20;99.90;;;;;;5113066;28;20040;-63
2022/12/05 09:39:03;;;;;;;16.77;8.32;;;6.20;99.90;;;;;;5114032;28;20050;-64
2022/12/05 09:42:07;;;;;;;16.33;7.15;;;6.20;99.90;;;;;;5114169;28;20047;-63
2022/12/05 09:44:53;;;;;;;12.40;6.28;;;6.20;99.90;;;;;;5113814;28;20051;-63
2022/12/05 09:47:44;;;;;;;15.40;6.05;;;6.20;99.90;;;;;;5113806;28;20581;-63
2022/12/05 09:50:39;;;;;;;13.50;6.22;;;6.20;99.90;;;;;;5114162;28;20376;-62
2022/12/05 09:53:31;;;;;;;14.90;6.53;;;6.20;99.90;;;;;;5111989;28;20074;-62
2022/12/05 09:56:11;;;;;;;12.70;6.85;;;6.20;99.90;;;;;;5112451;28;20492;-62
2022/12/05 09:58:48;;;;;;;15.25;6.93;;;6.20;99.90;;;;;;5114979;28;20039;-62
2022/12/05 10:01:41;;;;;;;12.25;5.65;;;6.20;99.90;;;;;;5113494;28;20361;-62
2022/12/05 10:04:38;;;;;;;20.02;6.75;;;6.20;99.90;;;;;;5114577;28;20114;-62
2022/12/05 10:07:22;;;;;;;16.90;6.18;;;6.30;99.90;;;;;;5111083;28;20055;-62
2022/12/05 10:10:15;;;;;;;12.88;6.88;;;6.30;99.90;;;;;;5113291;28;20445;-62
2022/12/05 10:13:09;;;;;;;17.13;6.85;;;6.30;99.90;;;;;;5112271;28;20039;-62
2022/12/05 10:15:41;;;;;;;15.48;7.28;;;6.30;99.90;;;;;;5110229;28;20039;-62
2022/12/05 10:18:26;;;;;;;16.88;7.72;;;6.30;99.90;;;;;;5112514;28;20063;-62
2022/12/05 10:21:03;;;;;;;11.57;6.60;;;6.30;99.90;;;;;;5113578;28;20392;-62
2022/12/05 10:23:53;;;;;;;14.52;7.32;;;6.30;99.90;;;;;;5095941;28;20046;-62
2022/12/05 10:26:21;;;;;;;15.82;7.13;;;6.30;99.90;;;;;;5113661;28;20067;-62
2022/12/05 10:29:10;;;;;;;12.25;7.38;;;6.30;99.90;;;;;;5113361;28;20040;-63
2022/12/05 10:31:37;;;;;;;13.15;6.15;;;6.30;99.90;;;;;;5100378;28;20055;-62
2022/12/05 10:34:09;;;;;;;13.57;7.13;;;6.40;99.90;;;;;;5114400;28;20039;-62
2022/12/05 10:36:34;;;;;;;16.10;6.40;;;6.40;99.90;;;;;;5094747;28;20080;-62
2022/12/05 10:39:00;;;;;;;17.80;6.50;;;6.40;99.90;;;;;;5113685;28;20479;-63
2022/12/05 10:41:27;;;;;;;16.85;7.85;;;6.40;99.90;;;;;;5111999;28;20062;-62
2022/12/05 10:43:54;;;;;;;21.27;9.52;;;6.40;99.90;;;;;;5111547;28;20043;-62
2022/12/05 10:46:19;;;;;;;22.17;10.85;;;6.40;99.90;;;;;;5094659;28;20035;-62
2022/12/05 10:48:45;;;;;;;13.65;6.45;;;6.40;99.90;;;;;;5112030;28;20469;-63
2022/12/05 10:51:17;;;;;;;21.27;9.15;;;6.40;99.90;;;;;;5111258;28;20043;-62
2022/12/05 10:53:48;;;;;;;11.60;5.50;;;6.40;99.90;;;;;;5113459;28;20036;-63
2022/12/05 10:56:47;;;;;;;16.15;6.93;;;6.50;99.90;;;;;;5111054;28;20146;-63
2022/12/05 10:59:19;;;;;;;15.43;7.05;;;6.50;99.90;;;;;;5112108;28;20048;-63
2022/12/05 11:01:56;;;;;;;18.17;7.10;;;6.40;99.90;;;;;;5111551;28;20050;-63
2022/12/05 11:04:29;;;;;;;15.10;6.03;;;6.50;99.90;;;;;;5110733;28;20092;-63
2022/12/05 11:07:00;;;;;;;14.57;6.45;;;6.40;99.90;;;;;;5112504;28;20066;-63
2022/12/05 11:09:28;;;;;;;13.55;6.10;;;6.40;99.90;;;;;;5112304;28;20524;-63
2022/12/05 11:12:16;;;;;;;13.32;6.60;;;6.40;99.90;;;;;;5111902;28;20044;-63
2022/12/05 11:15:24;;;;;;;16.88;8.10;;;6.40;99.90;;;;;;5113193;28;20039;-63
2022/12/05 11:17:54;;;;;;;17.92;7.20;;;6.40;99.90;;;;;;5111067;28;20067;-63
2022/12/05 11:20:20;;;;;;;14.40;7.07;;;6.40;99.90;;;;;;5111498;28;20039;-63
2022/12/05 11:22:48;;;;;;;12.85;6.72;;;6.30;99.90;;;;;;5112656;28;20046;-63
2022/12/05 11:25:32;;;;;;;15.88;7.00;;;6.30;99.90;;;;;;5111512;28;20453;-63
2022/12/05 11:28:19;;;;;;;28.00;12.35;;;6.30;99.90;;;;;;5112472;28;20054;-63
2022/12/05 11:31:02;;;;;;;21.13;8.02;;;6.30;99.90;;;;;;5111512;28;20070;-63
2022/12/05 11:33:30;;;;;;;27.23;10.93;;;6.30;99.90;;;;;;5110628;28;20040;-63
2022/12/05 11:36:10;;;;;;;20.75;10.90;;;6.30;99.90;;;;;;5111965;28;20419;-63
2022/12/05 11:38:37;;;;;;;17.38;8.50;;;6.30;99.90;;;;;;5111079;28;20496;-63
2022/12/05 11:41:02;;;;;;;12.90;6.38;;;6.20;99.90;;;;;;5094544;28;20047;-63
2022/12/05 11:44:05;;;;;;;14.95;7.07;;;6.30;99.90;;;;;;5111594;28;20514;-63
2022/12/05 11:46:33;;;;;;;14.32;6.28;;;6.20;99.90;;;;;;5110928;28;20035;-63
2022/12/05 11:49:10;;;;;;;13.82;6.50;;;6.20;99.90;;;;;;5111725;28;20051;-63
2022/12/05 11:51:38;;;;;;;17.90;5.72;;;6.20;99.90;;;;;;5093982;28;20408;-63
2022/12/05 11:54:16;;;;;;;15.30;6.25;;;6.20;99.90;;;;;;5110154;28;20487;-63
2022/12/05 11:56:55;;;;;;;16.00;5.90;;;6.20;99.90;;;;;;5111705;28;20071;-63
2022/12/05 11:59:53;;;;;;;14.70;5.53;;;6.20;99.90;;;;;;5111458;28;20387;-63
2022/12/05 12:02:33;;;;;;;12.30;5.97;;;6.20;99.90;;;;;;5111020;28;20507;-63
2022/12/05 12:05:21;;;;;;;14.15;5.65;;;6.20;99.90;;;;;;5110580;28;20036;-63
2022/12/05 12:08:13;;;;;;;12.88;6.32;;;6.20;99.90;;;;;;5110854;28;20126;-63
2022/12/05 12:11:01;;;;;;;13.68;5.15;;;6.10;99.90;;;;;;5111189;28;20094;-64
2022/12/05 12:13:43;;;;;;;15.82;5.47;;;6.10;99.90;;;;;;5099959;28;20411;-64
2022/12/05 12:16:32;;;;;;;22.55;8.75;;;6.20;99.90;;;;;;5110817;28;20044;-65
2022/12/05 12:19:20;;;;;;;16.80;9.15;;;6.10;99.90;;;;;;5116204;28;20365;-65
2022/12/05 12:22:10;;;;;;;17.80;5.95;;;6.10;99.90;;;;;;5097865;28;20054;-64
2022/12/05 12:24:51;;;;;;;13.02;5.85;;;6.10;99.90;;;;;;5115415;28;20051;-65
2022/12/05 12:27:35;;;;;;;18.05;6.28;;;6.10;99.90;;;;;;5114171;28;20052;-65
2022/12/05 12:30:10;;;;;;;14.20;5.53;;;6.10;99.90;;;;;;5115249;28;20503;-65
2022/12/05 12:32:56;;;;;;;13.45;5.68;;;6.10;99.90;;;;;;5115145;28;20051;-65
2022/12/05 12:35:27;;;;;;;15.88;5.97;;;6.10;99.90;;;;;;5115289;28;20044;-65
2022/12/05 12:37:59;;;;;;;12.68;5.43;;;6.10;99.90;;;;;;5116209;28;20035;-64
2022/12/05 12:41:01;;;;;;;12.32;5.35;;;6.10;99.90;;;;;;5115849;28;20036;-65
2022/12/05 12:43:45;;;;;;;13.48;5.93;;;6.10;99.90;;;;;;5114557;28;20043;-65
2022/12/05 12:46:25;;;;;;;12.65;4.53;;;6.00;99.90;;;;;;5115813;28;20369;-65
2022/12/05 12:49:24;;;;;;;9.45;4.68;;;6.00;99.90;;;;;;5114466;28;20047;-66
2022/12/05 12:51:56;;;;;;;10.13;4.90;;;6.00;99.90;;;;;;5116122;28;20384;-65
2022/12/05 12:54:37;;;;;;;10.27;4.82;;;6.00;99.90;;;;;;5114162;28;20035;-66
2022/12/05 12:57:08;;;;;;;15.98;4.82;;;6.00;99.90;;;;;;5114269;28;20455;-66
2022/12/05 13:00:00;;;;;;;11.55;4.20;;;6.00;99.90;;;;;;5114821;28;20042;-66
2022/12/05 13:02:40;;;;;;;9.65;4.88;;;6.00;99.90;;;;;;5114152;28;20038;-66
2022/12/05 13:05:26;;;;;;;10.77;4.30;;;5.90;99.90;;;;;;5115426;27;20040;-66
2022/12/05 13:08:11;;;;;;;13.50;5.90;;;6.00;99.90;;;;;;5114520;28;20052;-66
2022/12/05 13:10:45;;;;;;;12.67;5.20;;;5.90;99.90;;;;;;5113938;28;20047;-66
2022/12/05 13:13:22;;;;;;;11.70;4.35;;;5.90;99.90;;;;;;5097023;28;20284;-66
2022/12/05 13:15:51;;;;;;;13.00;5.57;;;5.90;99.90;;;;;;5115598;28;20027;-66
2022/12/05 13:18:19;;;;;;;10.73;5.18;;;5.90;99.90;;;;;;5113221;28;20047;-66